Timeline UpdatesTrip UpdatesNews PostsPvt PostsTravel TipsAdmin PostsConv PostsFollowed PostsChat RequestsBlog PostsPNR Posts

Disclaimer
Search
 
 
Wed Oct 1, 2014 05:28:17 ISTHomeTrainsΣChainsAtlasPNRForumGalleryNewsFAQTripsMembersLoginFeedback
No Recent News for this Train
Other Trains in the News **new
Latest...
.
Fri Jan 17, 2014 (09:13PM)
⇐ Return Journey: Train# 13049

13050/Amritsar-Howrah Express

Time-Table HAS CHANGED.
Sep 03 (10:10AM)
Change Departure Station:
Change Arrival Station:
Post a Train Travel TipPost a Train Travel Tip **new
Post a Comment/Question/Picture/VideoPost a Comment/Question/Picture/Video
Pantry/Catering
✕ NO Pantry Car
✕ NO Catering
RSA - Rake Sharing
no RSA
Rake/Coach Composition
LOCO-HCPV-SLR-GEN-B1-S1-S2-S3-S4-GEN-GEN-GEN-GEN-GEN-GEN-MILITARY-SLR
Loco
WAM-4/ WAG-5 [HWH-MGS] LDH WDM2/3A/3D [MGS-MB] GZB WAP-5 [...
Read more...
MB-ASR].
News    PNR    Forum    Time-Table    Availability    Fare Chart    Map    Arr/Dep History    Trips    Gallery    ΣChains    X/O    Timeline    
Travel Time: 1h 53m    6 halts    Distance: 77 km    Avg Speed: 40 km/hr
Type: Mail/Express
Zone: ER/Eastern
Departs @ 10:28 (Avg 43m late)
Platform# ???
SMTWTFS
Sitarampur Junction/STN 
Arrives @ 12:21 (Avg 32m late)
Platform# ???
SMTWTFS
Mankar/MNAE 

6 halts. 17 intermediate Stations between Sitarampur Junction and Mankar

Show ALL intermediate Stations  Show Old Time-Table

#CodeStation NameX/OArrivesAvgDepartsAvgHaltPFDay#KmSpeedElevZoneAddress
1ASRAmritsar Junction (5)  -18:10+1951-1701.192233mNRAmritsar 143002, Punjab
2BEASBeas Junction (2)X  18:38+3118:40+312m21-1658.061238mNRBeas, Punjab
3KREKartarpur (2)X  19:01+3019:03+302m11-1636.673236mNRKartarpur, Punjab
4JUCJalandhar City Junction (5)X  19:15+3119:23+328m21-1621.922239mNRJalandhar 144001, Punjab
5JRCJalandhar Cantt. Junction (3)X  19:36+2719:38+282m21-1617.165239mNRNear Rama Mandi, Punjab
6PGWPhagwara Junction (3)X  19:53+2819:55+282m11-1600.875245mNRPhagwara, Punjab
7PHRPhillaur Junction (3)X  20:13+2920:15+292m11-1578.252246mNRPhillaur, Punjab
8LDHLudhiana Junction (7)X  20:30+3020:40+3210m11-1565.251246mNRLudhiana 141001, Punjab
9KNNKhanna (3)X  21:30+1721:32+212m11-1522.361269mNRNH 1, Punjab
10GVGMandi Gobindgarh (2)X  21:40+2221:42+222m11-1514.253268mNRMandi Gobindgarh, Punjab
11SIRSirhind Junction (3)X  21:53+2121:55+212m11-1504.483271mNRSirhind, Punjab
12RPJRajpura Junction (3)X  22:12 22:13+2322:14+242 1m21-1479.656272mNRNH-1, Punjab
13UBCAmbala City (3)  22:35 22:36+2622:37+272 1m11-1459.120273mNRNH-1, Haryana
14UMBAmbala Cantt. Junction (7)X  23:00+1723:10+2010m11-1451.581278mNRAmbala 133001, Haryana
15JUDWJagadhri Workshop (2)  23:43 23:44+2623:45+272 1m11-1405.550280mNRRailway Workshop Road, Haryana
16JUDYamunanagar-Jagadhri (3)X  23:51+2723:53+282m21-1400.543275mNRYamunanagar, Haryana
17SRESaharanpur Junction (6)X  00:35+1800:55+1720m32-1370.465276mNRSaharanpur, Uttar Pradesh
18RKRoorkee (3)X  01:25 01:27+3001:27 01:32+312 5m12-1335.759264mNRRoorkee - 247667, Uttarakhand
19LRJLaksar Junction (4)X  01:50+2701:55+275m12-1317.972238mNRLaksar, Uttarakhand
20NBDNajibabad Junction (3)X  02:30+2802:35+285m12-1276.062269mNRNajibabad, Uttar Pradesh
21MBMoradabad Junction (7)  04:10+2704:20+3210m32-1177.055201mNRMoradabad, Uttar Pradesh
22RJKRaja Ka SahaspurX  04:48 04:46+3704:50 04:48+382m--2-1153.241196mNRBilari, Uttar Pradesh
23CHChandausi Junction (3)  05:20 05:17+3305:25 05:22+355m--2-1133.348193mNRChandausi, Uttar Pradesh
24AOAonla (2)06:08 06:15+3406:10 06:17+362m--2-1091.132176mNRDist. Bareilly, Uttar Pradesh
25CHTIChanehti Junction new halt!!X  07:07+5107:09+312m--2-1064.560168mNRBareilly, Uttar Pradesh
26PMRPitambarpurX  07:33 07:25+3807:35 07:27+412m--2-1048.472171mNRPitambarpur, Uttar Pradesh
27TLHTilhar  07:52 07:54+4407:54 07:56+452m--2-1015.930163mNRTilhar, Uttar Pradesh
28SPNShahjahanpur Junction (3)X  08:32+2508:37+265m--2-997.871156mNRShahjahanpur, Uttar Pradesh
29AJIAnjhi Shahabad  09:01 09:03+3009:03 09:05+302m--2-967.077148mNRAnjhi Shahabad, Uttar Pradesh
30HRIHardoi (5)X  09:28 09:30+3009:30 09:35+302 5m32-934.879146mNRHardoi, Uttar Pradesh
31BLMBalamau Junction (4)X  10:00+2910:02+292m--2-901.758139mNRBalamau, Uttar Pradesh
32SANSandila (3)O  10:23+3010:25+302m--2-881.447132mNRSandila, Uttar Pradesh
33AMGAlamnagar (3)  11:18+2811:20+302m22-839.917126mNRLucknow, Uttar Pradesh
34LKOLucknow Charbagh NR (9)  11:45+2212:10+2125m42-832.959123mNR226004, Uttar Pradesh
35HGHHaidergarh (2)X  13:07 13:08+3013:09+332 1m12-776.244116mNRState Highway 13, Uttar Pradesh
36AKJAkbarGanj (1)  13:31 13:32+3013:33+332 1m12-759.276112mNRSH 31, Uttar Pradesh
37NHHNihalgarh (3)  13:45+4313:47+462m12-744.071108mNRJagdishpur, Uttar Pradesh
38MFKAMusafir Khana (3)  14:02 14:03+4814:04+502 1m12-725.149105mNRMusfirKhana, Uttar Pradesh
39SLNSultanpur Junction (3)X  14:43+5914:48+1:075m22-693.57399mNRSultanpur., Uttar Pradesh
40LBALambhua (1)  15:06+1:1415:08+1:152m12-671.65797mNRLambhua, Uttar Pradesh
41KEPRKoiripur (1)  15:25 15:26+1:1815:27+1:182 1m12-654.48096mNRNational Highway 56, Uttar Pradesh
42HRPGHarpalGanj (1)  15:35+1:2315:37+1:252m12-643.74490mNRNational Highway 56, Uttar Pradesh
43SKNSri Krishna Nagar (2)X  15:47 15:48+1:2515:49+1:252 1m12-635.75892mNRBadlapur, Uttar Pradesh
44JOPJaunpur City (3)X  16:18+1:2416:20+1:242m12-607.72187mNRJaunpur, Uttar Pradesh
45ZBDZafarabad Junction (4)X  16:38+1:1816:40+1:172m12-601.42583mNRNational Highway 56, Uttar Pradesh
46KSFKhalispur (2)X  17:37+4217:39+412m--2-578.12683mNRPhulpur, Uttar Pradesh
47PDRDPindra Road (2)  17:47 17:48-17:49-2 1m--2-574.22581mNRSatomahua-Mangari Rd, Uttar Pradesh
48BTPBabatpur (2)X  18:01 18:02+3218:03+332 1m--2-568.82784mNRSatomahua-Mangari Rd, Uttar Pradesh
49SOPShivpur (3)  18:32+2118:34+232m--2-555.81681mNRVaranasi, Uttar Pradesh
50BSBVaranasi Junction (9)X  18:55+2719:15+3120m62-550.22382mNRVaranasi 221002, Uttar Pradesh
51KEIKashi (3)X  19:29+2619:31+272m--2-544.91385mNRVaranasi, Uttar Pradesh
52MGSMughal Sarai Junction (8)X20:20+1420:40+1720m12-533.94083mECRMughalsarai 232101, Uttar Pradesh
53KCAKuchman (2)  20:56+2320:58+242m--2-523.37679mECRKuchman, Uttar Pradesh
54SLDSakaldiha (2)X  21:04+2721:06+292m--2-515.77581mECRState Highway 69, Uttar Pradesh
55DHADheena  21:17+3121:19+342m--2-502.17474mECRDheena, Uttar Pradesh
56ZNAZamania (2)X  21:29+3521:31+372m--2-489.76277mECRGhazipur, Uttar Pradesh
57DLNDildarnagar Junction (2)X  21:44+4521:46+482m--2-476.26772mECRDildarnagar, Uttar Pradesh
58BWHBhadaura (2)XO  21:52 21:53+4821:54 21:55+512m--2-468.47069mECRGhazipur, Uttar Pradesh
59GMRGahmar (2)  22:02+5122:04+532m--2-460.24668mECRDistt: Ghazipur, Uttar Pradesh
60CSAChausa (2)  22:16+5222:18+532m--2-450.96668mECRState Highway 14, Bihar
61BXRBuxar (3)X  22:28+5822:32+584m--2-440.08967mECRBuxar, Bihar
62DUREDumraon (3)  22:43+5822:45+592m--2-423.76570mECRDumraon, Bihar
63TWGTwining GanjX  22:52+5922:54+1:022m--2-416.16370mECRArrah Buxar Rd, Bihar
64RPRRaghunathpur (4)XO  23:02+1:0223:04+1:042m--2-407.76669mECRRaghunathpur, Bihar
65BYNBanahi (2)  23:12+1:0423:14+1:052m--2-398.95967mECRBanahi, Bihar
66BEABihiya (3)X  23:20+1:0723:22+582m--2-392.94167mECRBehea, Bihar
67ARAAra Junction (3)X  23:53+5623:58+555m--2-371.58363mECRarrah( 06182-233411), Bihar
68BTABihta (2)  00:14+5700:16+1:002m--3-349.31762mECRDistt: Patna, Bihar
69DNRDanapur (5)X  01:18+3601:28+4110m--3-332.01258mECRKhagaul, Bihar
70PNBEPatna Junction (10)X  02:15+3802:30+4215m--3-322.64257mECRPatna 800001, Bihar
71PNCPatna Saheb (3)  02:44+4202:46+462m--3-312.76159mECRPatna 800008, Bihar
72FUTFatwa (6)X  02:58+5303:00+542m--3-300.57053mECRPatna, Bihar
73BKPBakhtiyarpur Junction (5)  03:20+5503:22+572m--3-277.29151mECRPatna, Bihar
74BARHBarh (3)X  03:34+1:0203:36+1:042m--3-259.16449mECRBarh, Bihar
75MKAMokama Junction (4)O  04:00+1:0804:02+1:092m--3-233.36348mECRPatna, Bihar
76HTZHathidah Junction (2)  04:10+1:1204:12+1:122m13-225.03550mECRMusahari, Bihar
77BRYABarhiya (3)  04:28+1:0604:30+1:062m--3-215.66547mECRBarahiya, Bihar
78LKRLuckeesarai Junction (2)X  04:44+1:0004:46+1:002m--3-200.5952mECRLakhisarai, Bihar
79KIULKiul Junction (5)X  04:55+1:1105:00+1:095m--3-199.12053mECRDist. Lakhisarai, Bihar
80MNPMananpur (2)X  05:21+1:0305:23+1:052m--3-192.210257mECRState Highway 18, Bihar
81JMUJamui (2)X  05:34 05:35+1:0905:36 05:37+1:102m--3-171.87381mECRState Highway 72, Bihar
82GHRGidhaur (2)X  05:49+1:1105:51+1:122m--3-157.39106mECRState Highway 18, Bihar
83JAJJhajha (4)  07:07+3807:17+4010m--3-145.875143mECRJhajha, Bihar
84STLSimultala (2)X  07:32+4307:34+442m--3-127.259247mERSimultala, Bihar
85JSMEJasidih Junction (5)  08:00+4408:05+445m--3-101.875271mERJasidih, Jharkhand
86MUWMathurapur (2)  08:19+4408:21+432m--3-84.354261mERDeoghar, Jharkhand
87MDPMadhupur Junction (4)X  08:34+4108:44+3910m33-72.781254mER06432-224478, Jharkhand
88VDSVidyasagar (2)X  09:02+4609:04+482m--3-48.567250mERJamtara, Jharkhand
89JMTJamtara (2)X  09:20+5209:22+522m23-30.648201mERJamtara, Jharkhand
90CRJChittaranjan (3)X  09:40+1:0309:42+1:082m23-16.355182mERMihijam, Jharkhand
91RNPRRupnarayanpur (3)XO  09:47+5109:49+502m--3-11.719191mERChittaranjan, West Bengal
92STNSitarampur Junction (5)»XO  10:26+3210:28+432m--30.024139mERG T Rd Before Asansol, West Bengal
93ASNAsansol Junction (7)X  10:50+4311:05+4115m338.872113mERDist - Bardhaman, West Bengal
94RNGRaniGanj (4)X  11:20+5811:22+582m--326.94092mERRaniganj, West Bengal
95UDLAndal Junction (6)  11:33+5611:35+552m--334.28286mERAndal, West Bengal
96OYRWaria (4)  11:41+3211:43+312m--342.453 ERDurgapur, West Bengal
97DGRDurgapur (5)  11:53+4511:57+444m--351.29471mERDurgapur, West Bengal
98PANPanagarh (4)X  12:07+3412:09+332m--366.85170mERKaksa, West Bengal
99MNAEMankar (4)•  12:21+3212:23+322m--377.04965mERMankur, West Bengal
100KANKhana Junction (5)X  12:53+2612:55+262m--3101.74942mERDist - Bardhaman, West Bengal
101BWNBarddhaman Junction (8)X  13:11+3313:16+345m--3114.76834mERDist - Barddhaman, West Bengal
102BDCBandel Junction (7)  14:15+2514:23+278m--3182.04514mERdist - HOOGHLY, West Bengal
103CNSChuchura (3)  14:28+814:30+22m--3185.84515mERDist - HOOGHLY - 712102, West Bengal
104CGRChandan Nagar (3)X  14:34+3414:36+352m--3188.84016mERDist -HOOGHLY - 712136, West Bengal
105SHESeoraphuli Junction (6)  14:52+2914:54+292m--3199.45113mERBaidyabati, West Bengal
106SRPSerampore (4)  14:57+2914:59+302m--3201.92511mERdist - hooghly, West Bengal
107HWHKolkata Howrah Junction (23)  15:45+31-113221.5-10mERHowrah 711101, West Bengal
Scroll to Top
Scroll to Bottom